Tiempo atmosférico en la estación meteorológica de Barcena de Cicero, Treto, Cantabria (10 m.)

Fecha
DESCASC
Temp. máxima en grados centígrados (hora)
DESCASC
Temp. mínima en grados centígrados (hora)
DESCASC
Temp. media en grados centígrados
DESCASC
Racha de viento máxima en m/sg (hora)
DESCASC
Velocidad máxima media en intervalos de 10 minutos(hora)
DESCASC
Precipitaciones diarias en mm
DESCASC
Precipitaciones de 00:00 a 06:00 en mm
DESCASC
Precipitaciones de 06:00 a 12:00 en mm
DESCASC
Precipitaciones de 12:00 a 18:00 en mm
DESCASC
Precipitaciones de 18:00 a 24:00 en mm
DESCASC
23-11-2017 21.7 (00:00) 12.4 (19:50) 17.1 16.39 (01:40) 8.06 (01:30) 0 0 0 0 0
22-11-2017 23.4 (13:50) 3.1 (03:20) 13.2 15 (23:59) 7.5 (23:59) 0 0 0 0 0
21-11-2017 18 (14:30) 4.4 (06:50) 11.2 6.11 (06:20) 3.33 (01:50) 0 0 0 0 0
20-11-2017 15.9 (14:40) 2.5 (08:50) 9.2 6.39 (23:20) 3.61 (07:20) 0 0 0 0 0
19-11-2017 14.3 (14:40) 2.6 (00:00) 8.5 7.22 (16:10) 5.28 (15:40) 0.2 0.2 0 0 0
18-11-2017 15.2 (13:50) 5.3 (00:00) 10.3 5.83 (02:30) 3.89 (14:20) 0 0 0 0 0
17-11-2017 15.5 (13:50) 4.9 (00:00) 10.2 6.11 (08:30) 4.17 (10:50) 0 0 0 0 0
16-11-2017 15.5 (14:10) 3.1 (00:00) 9.3 5.83 (01:30) 3.33 (01:40) 0 0 0 0 0
15-11-2017 12.9 (15:50) 2.8 (00:00) 7.8 7.5 (14:10) 5.56 (14:10) 0 0 0 0 0
14-11-2017 13 (12:40) 4.9 (00:00) 9 6.39 (16:10) 4.72 (16:10) 0 0 0 0 0
13-11-2017 13.7 (00:00) 7.9 (00:00) 10.8 10.28 (04:30) 4.17 (03:10) 0.6 0 0.6 0 0
12-11-2017 16.7 (15:00) 13.6 (00:00) 15.2 9.72 (16:50) 5 (16:40) 3.8 0 0 1.2 2.6
11-11-2017 16 (15:00) 12.6 (00:00) 14.3 9.72 (14:10) 5.28 (14:20) 0.6 0.4 0.2 0 0
10-11-2017 15.4 (13:50) 9.9 (00:00) 12.6 8.89 (18:50) 5 (10:50) 15.2 2 10.4 1.8 1
09-11-2017 14.2 (15:00) 7.4 (00:00) 10.8 6.11 (13:40) 3.61 (15:00) 4.8 2.6 2 0 0.2
08-11-2017 12.9 (00:00) 7 (00:00) 9.9 9.72 (12:10) 5.56 (12:10) 24.4 1.4 8.6 13 1.4
07-11-2017 14.8 (14:10) 7.9 (00:00) 11.4 8.61 (20:50) 4.44 (23:00) 6 0.8 0 0.2 5
06-11-2017 15.5 (13:10) 8.4 (00:00) 11.9 7.22 (12:20) 3.61 (13:40) 1.6 1.4 0 0 0.2
05-11-2017 14.1 (00:30) 10.8 (00:00) 12.5 12.22 (21:50) 5.28 (21:50) 18.8 2.8 2.8 7.8 5.4
04-11-2017 17.1 (14:50) 10.2 (00:00) 13.7 8.06 (21:20) 3.89 (21:10) 15 0 0 9.6 5.4
03-11-2017 20.1 (12:20) 11.3 (00:00) 15.7 5.56 (15:50) 3.61 (14:30) 0.8 0 0.8 0 0
02-11-2017 24.6 (14:10) 10.4 (08:30) 17.5 6.39 (12:40) 3.61 (12:40) 0 0 0 0 0
01-11-2017 22.9 (14:50) 7 (00:00) 14.9 6.67 (09:20) 4.17 (09:20) 0 0 0 0 0
31-10-2017 15.6 (16:50) 8.4 (00:00) 12 8.33 (14:50) 6.39 (14:40) 0 0 0 0 0
30-10-2017 16.2 (10:40) 10 (00:00) 13.1 8.06 (13:30) 5.28 (13:30) 4.4 1.8 2.2 0.4 0
29-10-2017 16.7 (14:30) 8.2 (00:00) 12.5 6.39 (06:50) 3.06 (06:50) 0.8 0 0 0 0.8
28-10-2017 18.9 (15:00) 10.2 (00:00) 14.5 5.83 (17:30) 3.89 (17:40) 0 0 0 0 0
27-10-2017 20.6 (13:30) 10.3 (00:00) 15.5 4.72 (14:50) 3.06 (15:00) 0.2 0 0 0 0.2
26-10-2017 23.7 (15:50) 9.3 (00:00) 16.5 7.22 (12:50) 3.61 (13:00) 0 0 0 0 0

Gráficas

Temp. máximas Temp. mínimas Temp. medias Precipitaciones Rachas de viento máximas Velocidades máximas media en intervalos de 10 minutos

Datos horarios

Fecha y hora oficial Temperatura (ºC) Velocidad del viento (km/h) Dirección del viento Racha (km/h) Dirección de racha Precipitación (mm) Presión (hPa) Tendencia (hPa) Humedad (%)
2017-11-24 23:00:00 12.5 3 Sur 10 Sur 0.4 -- -- 96
2017-11-24 22:00:00 12.6 5 Sur 8 Sudeste 0.2 -- -- 94
2017-11-24 21:00:00 12.9 3 Noroeste 8 Noroeste 0 -- -- 93
2017-11-24 20:00:00 13.1 4 Sudoeste 14 Oeste 0 -- -- 91
2017-11-24 19:00:00 14 5 Oeste 10 Noroeste 0.6 -- -- 91
2017-11-24 18:00:00 15 3 Noroeste 7 Norte 0.2 -- -- 85
2017-11-24 17:00:00 15.4 4 Norte 16 Norte 0 -- -- 83
2017-11-24 16:00:00 16.2 4 Noroeste 9 Nordeste 0 -- -- 81
2017-11-24 15:00:00 16 6 Nordeste 13 Noroeste 0 -- -- 83
2017-11-24 14:00:00 16.1 9 Noroeste 14 Noroeste 0 -- -- 81
2017-11-24 13:00:00 16.4 8 Noroeste 14 Noroeste 0 -- -- 81
2017-11-24 12:00:00 16.1 8 Noroeste 15 Noroeste 0 -- -- 79
2017-11-24 11:00:00 15.5 8 Noroeste 14 Noroeste 0 -- -- 90
2017-11-24 10:00:00 14.6 4 Sudoeste 7 Sudoeste 0 -- -- 93
2017-11-24 09:00:00 14.1 0 Calma 5 Oeste 0 -- -- 86
2017-11-24 08:00:00 15 0 Calma 7 Norte 0 -- -- 77
2017-11-24 07:00:00 16.3 5 Noroeste 13 Norte 0 -- -- 66
2017-11-24 06:00:00 16.4 5 Noroeste 15 Norte 0 -- -- 67
2017-11-24 05:00:00 17.4 8 Nordeste 19 Norte 0 -- -- 62
2017-11-24 04:00:00 19.6 6 Sur 23 Sur 0 -- -- 34
2017-11-24 03:00:00 20.3 5 Sudoeste 28 Sudoeste 0 -- -- 32
2017-11-24 02:00:00 21.6 14 Sudoeste 39 Sur 0 -- -- 28
2017-11-24 01:00:00 21.7 18 Sudoeste 38 Sur 0 -- -- 29
2017-11-24 00:00:00 21.6 16 Sudoeste 43 Sur 0 -- -- 31
2017-11-23 23:00:00 19.1 8 Sur 32 Sudoeste 0 -- -- 39
2017-11-23 22:00:00 14.3 3 Este 11 Sur 0 -- -- 67
2017-11-23 21:00:00 14.7 3 Este 15 Sudoeste 0 -- -- 70
2017-11-23 20:00:00 14 6 Sudoeste 21 Sur 0 -- -- 80
2017-11-23 19:00:00 13.1 6 Noroeste 8 Noroeste 0 -- -- 82
2017-11-23 18:00:00 14.3 3 Sur 9 Oeste 0 -- -- 77
2017-11-23 17:00:00 17 2 Noroeste 10 Norte 0 -- -- 66
2017-11-23 16:00:00 17.9 3 Nordeste 10 Nordeste 0 -- -- 59
2017-11-23 15:00:00 18.8 6 Norte 21 Nordeste 0 -- -- 55
2017-11-23 14:00:00 19.1 14 Nordeste 25 Nordeste 0 -- -- 52
2017-11-23 13:00:00 19.2 10 Nordeste 18 Nordeste 0 -- -- 53
2017-11-23 12:00:00 19.6 7 Norte 17 Norte 0 -- -- 48
2017-11-23 11:00:00 18.2 5 Norte 10 Norte 0 -- -- 54
2017-11-23 10:00:00 17.8 3 Sudeste 11 Sudeste 0 -- -- 49
2017-11-23 09:00:00 19.1 7 Sudeste 32 Sudoeste 0 -- -- 45
2017-11-23 08:00:00 19.8 14 Sudoeste 41 Oeste 0 -- -- 39
2017-11-23 07:00:00 20.5 19 Sudoeste 47 Sur 0 -- -- 33
2017-11-23 06:00:00 18.2 17 Sur 53 Sur 0 -- -- 41
2017-11-23 05:00:00 21 18 Sudoeste 44 Sur 0 -- -- 27
2017-11-23 04:00:00 20.6 23 Sudoeste 52 Sudoeste 0 -- -- 28
2017-11-23 03:00:00 20.4 15 Sudoeste 53 Sudoeste 0 -- -- 28
2017-11-23 02:00:00 20.8 26 Sudoeste 59 Sudoeste 0 -- -- 25
2017-11-23 01:00:00 21.6 24 Sudoeste 47 Sur 0 -- -- 22
2017-11-23 00:00:00 21.7 27 Sudoeste 54 Sudoeste 0 -- -- 21
2017-11-22 23:00:00 21.8 17 Sudoeste 50 Sudoeste 0 -- -- 22
2017-11-22 22:00:00 16.2 7 Sur 15 Oeste 0 -- -- 39
2017-11-22 21:00:00 17 4 Oeste 16 Sudeste 0 -- -- 44
2017-11-22 20:00:00 16 5 Este 10 Nordeste 0 -- -- 48
2017-11-22 19:00:00 16.7 5 Sudeste 12 Oeste 0 -- -- 42
2017-11-22 18:00:00 16.1 5 Noroeste 11 Este 0 -- -- 48
2017-11-22 17:00:00 20.5 7 Nordeste 15 Nordeste 0 -- -- 34
2017-11-22 16:00:00 21.2 7 Este 18 Este 0 -- -- 28
2017-11-22 15:00:00 22.5 13 Sur 30 Sur 0 -- -- 24
2017-11-22 14:00:00 23.2 13 Sur 25 Sudeste 0 -- -- 27
2017-11-22 13:00:00 21.5 16 Sudeste 28 Sudeste 0 -- -- 32
2017-11-22 12:00:00 21.3 3 Este 24 Sur 0 -- -- 35
2017-11-22 11:00:00 18.9 10 Sur 24 Sudeste 0 -- -- 45
2017-11-22 10:00:00 13.6 7 Sudeste 20 Sudeste 0 -- -- 69
2017-11-22 09:00:00 5.7 3 Sudeste 7 Este 0 -- -- 90
2017-11-22 08:00:00 5.2 2 Sudeste 7 Este 0 -- -- 87
2017-11-22 07:00:00 4.3 0 Calma 13 Sudeste 0 -- -- 89
2017-11-22 06:00:00 4.5 4 Oeste 15 Sur 0 -- -- 86
2017-11-22 05:00:00 4.8 5 Oeste 15 Sudoeste 0 -- -- 87
2017-11-22 04:00:00 4.3 10 Sur 18 Sur 0 -- -- 93
2017-11-22 03:00:00 3.5 4 Sur 9 Sudeste 0 -- -- 96
2017-11-22 02:00:00 4 9 Sudeste 12 Sudeste 0 -- -- 95
2017-11-22 01:00:00 5.1 3 Sur 13 Sur 0 -- -- 95
2017-11-22 00:00:00 5.4 8 Sur 12 Sur 0 -- -- 95
2017-11-21 23:00:00 6.5 4 Sudeste 14 Sur 0 -- -- 94
2017-11-21 22:00:00 7.1 6 Sudoeste 14 Sur 0 -- -- 95
2017-11-21 21:00:00 7.1 3 Sur 6 Sudeste 0 -- -- 95
2017-11-21 20:00:00 7.8 3 Sudoeste 10 Sudeste 0 -- -- 92
2017-11-21 19:00:00 9.5 4 Sur 11 Sur 0 -- -- 91
2017-11-21 18:00:00 11.6 4 Sudeste 6 Oeste 0 -- -- 82
2017-11-21 17:00:00 16.2 3 Oeste 6 Nordeste 0 -- -- 68
2017-11-21 16:00:00 17.9 5 Norte 9 Noroeste 0 -- -- 60
2017-11-21 15:00:00 17.8 4 Nordeste 9 Norte 0 -- -- 62
2017-11-21 14:00:00 17.7 5 Nordeste 12 Sur 0 -- -- 55
2017-11-21 13:00:00 16.6 9 Sudeste 17 Sudeste 0 -- -- 62
2017-11-21 12:00:00 14 11 Sudeste 18 Sudeste 0 -- -- 68
2017-11-21 11:00:00 10.7 8 Sur 18 Sudeste 0 -- -- 78
2017-11-21 10:00:00 6.9 10 Sur 17 Sur 0 -- -- 87
2017-11-21 09:00:00 5 9 Sur 18 Sudeste 0 -- -- 90
2017-11-21 08:00:00 4.4 8 Sur 16 Sur 0 -- -- 89
2017-11-21 07:00:00 4.5 10 Sur 22 Sur 0 -- -- 90
2017-11-21 06:00:00 5.1 10 Sur 20 Sudeste 0 -- -- 88
2017-11-21 05:00:00 5.1 12 Sur 19 Sur 0 -- -- 89
2017-11-21 04:00:00 5.8 10 Sur 17 Sur 0 -- -- 87
2017-11-21 03:00:00 5.5 11 Sur 17 Sur 0 -- -- 89
2017-11-21 02:00:00 6.2 10 Sur 18 Sudeste 0 -- -- 88
2017-11-21 01:00:00 5.6 9 Sur 19 Sudeste 0 -- -- 92
2017-11-21 00:00:00 6.3 12 Sur 23 Sudeste 0 -- -- 92
2017-11-20 23:00:00 7 10 Sur 18 Sur 0 -- -- 91
2017-11-20 22:00:00 7.4 11 Sur 17 Sur 0 -- -- 94
2017-11-20 21:00:00 7.2 6 Sur 10 Sur 0 -- -- 94
2017-11-20 20:00:00 7.7 6 Sur 12 Sur 0 -- -- 95
2017-11-20 19:00:00 8.8 3 Sur 5 Sudeste 0 -- -- 93
2017-11-20 18:00:00 10.6 0 Calma 3 Noroeste 0 -- -- 84
2017-11-20 17:00:00 14 2 Oeste 6 Norte 0 -- -- 72
2017-11-20 16:00:00 15 4 Nordeste 9 Nordeste 0 -- -- 64
2017-11-20 15:00:00 15.7 5 Nordeste 8 Nordeste 0 -- -- 63
2017-11-20 14:00:00 15.2 4 Nordeste 6 Nordeste 0 -- -- 65
2017-11-20 13:00:00 14.6 3 Este 6 Este 0 -- -- 65
2017-11-20 12:00:00 12.5 4 Sur 9 Sur 0 -- -- 71
2017-11-20 11:00:00 9.1 3 Sudoeste 9 Sur 0 -- -- 81
2017-11-20 10:00:00 6.2 5 Sudeste 15 Sudeste 0 -- -- 91
2017-11-20 09:00:00 2.9 8 Sur 12 Sur 0 -- -- 96
2017-11-20 08:00:00 2.8 3 Sudeste 22 Sudeste 0 -- -- 91
2017-11-20 07:00:00 3.7 9 Sur 19 Sudeste 0 -- -- 94
2017-11-20 06:00:00 3.9 8 Sur 17 Sur 0 -- -- 92
2017-11-20 05:00:00 4.3 11 Sur 18 Sur 0 -- -- 96
2017-11-20 04:00:00 3.3 6 Sur 15 Sudeste 0 -- -- 94
2017-11-20 03:00:00 4.2 8 Sur 16 Sudeste 0 -- -- 93
2017-11-20 02:00:00 4.6 8 Sur 16 Sudeste 0 -- -- 95
2017-11-20 01:00:00 4.5 9 Sur 13 Sur 0 -- -- 94
2017-11-20 00:00:00 5.5 6 Sur 13 Sudeste 0 -- -- 95
2017-11-19 23:00:00 5 6 Sur 9 Sur 0 -- -- 97
2017-11-19 22:00:00 5.5 4 Sur 9 Sudeste 0 -- -- 96
2017-11-19 21:00:00 5.9 0 Calma 9 Sudoeste 0 -- -- 95
2017-11-19 20:00:00 6.9 5 Sur 9 Sur 0 -- -- 92
2017-11-19 19:00:00 8.8 2 Sur 9 Este 0 -- -- 86
2017-11-19 18:00:00 12.3 12 Este 21 Nordeste 0 -- -- 74
2017-11-19 17:00:00 13.4 16 Nordeste 26 Este 0 -- -- 75
2017-11-19 16:00:00 13.8 17 Nordeste 25 Este 0 -- -- 71
2017-11-19 15:00:00 14.2 14 Nordeste 23 Nordeste 0 -- -- 68
2017-11-19 14:00:00 14.1 9 Nordeste 23 Nordeste 0 -- -- 66
2017-11-19 13:00:00 13.8 12 Nordeste 19 Nordeste 0 -- -- 60
2017-11-19 12:00:00 11.1 4 Sur 12 Sudeste 0 -- -- 82
2017-11-19 11:00:00 8.5 10 Sudeste 19 Sudeste 0 -- -- 93
2017-11-19 10:00:00 6.2 10 Sur 24 Sudeste 0 -- -- 100
2017-11-19 09:00:00 3.5 13 Sudeste 24 Sudeste 0 -- -- 100
2017-11-19 08:00:00 3.2 10 Sur 23 Sudeste 0 -- -- 100
2017-11-19 07:00:00 4.1 12 Sur 21 Sudeste 0 -- -- 100
2017-11-19 06:00:00 4.3 12 Sur 21 Sudeste 0 -- -- 99
2017-11-19 05:00:00 4.8 12 Sur 22 Sudeste 0.2 -- -- 100
2017-11-19 04:00:00 4 9 Sur 19 Sudeste 0 -- -- 99
2017-11-19 03:00:00 5.2 10 Sudeste 19 Sudeste 0 -- -- 100
2017-11-19 02:00:00 4.9 6 Sur 10 Sur 0 -- -- 100
2017-11-19 01:00:00 5.9 3 Sur 13 Sudeste 0 -- -- 99
2017-11-19 00:00:00 6.3 9 Sudeste 14 Sudeste 0 -- -- 99
2017-11-18 23:00:00 6.2 2 Sur 12 Sur 0 -- -- 98
2017-11-18 22:00:00 7.1 9 Sur 14 Sudeste 0 -- -- 97
2017-11-18 21:00:00 7.6 8 Sur 13 Sur 0 -- -- 97
2017-11-18 20:00:00 7.9 5 Sudeste 8 Sur 0 -- -- 95
2017-11-18 19:00:00 9.6 3 Noroeste 5 Este 0 -- -- 90
2017-11-18 18:00:00 11.9 3 Sur 20 Nordeste 0 -- -- 85
2017-11-18 17:00:00 13.8 13 Nordeste 19 Nordeste 0 -- -- 80
2017-11-18 16:00:00 14.3 13 Nordeste 20 Nordeste 0 -- -- 76
2017-11-18 15:00:00 14.7 11 Nordeste 20 Nordeste 0 -- -- 76
2017-11-18 14:00:00 14.9 9 Nordeste 18 Nordeste 0 -- -- 78
2017-11-18 13:00:00 14.8 5 Nordeste 11 Sudeste 0 -- -- 80
2017-11-18 12:00:00 12.6 8 Sudeste 17 Sudeste 0 -- -- 86
2017-11-18 11:00:00 10 10 Sudeste 17 Sudeste 0 -- -- 94
2017-11-18 10:00:00 8.3 8 Sur 16 Sur 0 -- -- 97
2017-11-18 09:00:00 7.5 10 Sur 20 Sudeste 0 -- -- 99
2017-11-18 08:00:00 6.9 9 Sur 21 Sudeste 0 -- -- 100
2017-11-18 07:00:00 6 9 Sur 18 Sur 0 -- -- 100
2017-11-18 06:00:00 5.3 8 Sur 18 Sudeste 0 -- -- 100
2017-11-18 05:00:00 5.7 9 Sur 21 Sudeste 0 -- -- 100
2017-11-18 04:00:00 5.7 8 Sur 15 Sudeste 0 -- -- 100
2017-11-18 03:00:00 6.1 7 Sur 21 Sudeste 0 -- -- 100
2017-11-18 02:00:00 6.2 9 Sur 12 Sur 0 -- -- 100
2017-11-18 01:00:00 6.5 6 Sur 10 Sur 0 -- -- 99
2017-11-18 00:00:00 7.4 7 Sur 12 Sudeste 0 -- -- 99
2017-11-17 23:00:00 7.3 6 Sur 10 Sur 0 -- -- 99
2017-11-17 22:00:00 7.6 4 Sur 6 Sudeste 0 -- -- 98
2017-11-17 21:00:00 8.8 8 Sur 12 Sur 0 -- -- 98
2017-11-17 20:00:00 9.2 9 Sur 13 Sur 0 -- -- 96
2017-11-17 19:00:00 9.8 3 Sudeste 6 Sudeste 0 -- -- 93
2017-11-17 18:00:00 11.6 0 Calma 6 Norte 0 -- -- 87
2017-11-17 17:00:00 14.2 4 Nordeste 12 Este 0 -- -- 83
2017-11-17 16:00:00 14.9 6 Nordeste 13 Nordeste 0 -- -- 80
2017-11-17 15:00:00 15.1 9 Nordeste 13 Nordeste 0 -- -- 77
2017-11-17 14:00:00 15.5 7 Nordeste 12 Nordeste 0 -- -- 75
2017-11-17 13:00:00 15 4 Noroeste 11 Sudeste 0 -- -- 76
2017-11-17 12:00:00 13.2 8 Sudeste 18 Sudeste 0 -- -- 83
2017-11-17 11:00:00 10.5 14 Sudeste 21 Sudeste 0 -- -- 90
2017-11-17 10:00:00 8.5 11 Sur 20 Sudeste 0 -- -- 99
2017-11-17 09:00:00 6.9 10 Sudeste 22 Sudeste 0 -- -- 99
2017-11-17 08:00:00 6.6 11 Sur 20 Sudeste 0 -- -- 100
2017-11-17 07:00:00 6.2 8 Sur 16 Sudeste 0 -- -- 100
2017-11-17 06:00:00 5 6 Sur 14 Sur 0 -- -- 100
2017-11-17 05:00:00 5.5 8 Sur 18 Sudeste 0 -- -- 99
2017-11-17 04:00:00 5.8 10 Sur 22 Sudeste 0 -- -- 99
2017-11-17 03:00:00 6.5 9 Sur 16 Sudeste 0 -- -- 99
2017-11-17 02:00:00 6.6 8 Sur 16 Sur 0 -- -- 99
2017-11-17 01:00:00 6.8 7 Sur 19 Sudeste 0 -- -- 99
2017-11-17 00:00:00 6.9 8 Sur 13 Sur 0 -- -- 99
2017-11-16 23:00:00 7.5 5 Sur 14 Sur 0 -- -- 99
2017-11-16 22:00:00 7.2 6 Sur 10 Sur 0 -- -- 98
2017-11-16 21:00:00 8.3 3 Sur 8 Sur 0 -- -- 97
2017-11-16 20:00:00 9 6 Sur 12 Sur 0 -- -- 96
2017-11-16 19:00:00 10 3 Sudeste 6 Sudeste 0 -- -- 93
2017-11-16 18:00:00 12.1 0 Calma 4 Oeste 0 -- -- 88
2017-11-16 17:00:00 14 0 Calma 9 Nordeste 0 -- -- 83
2017-11-16 16:00:00 14.8 5 Nordeste 10 Nordeste 0 -- -- 79
2017-11-16 15:00:00 15.2 5 Nordeste 9 Nordeste 0 -- -- 71
2017-11-16 14:00:00 15.4 5 Nordeste 8 Nordeste 0 -- -- 65
2017-11-16 13:00:00 14.4 4 Nordeste 6 Este 0 -- -- 66
2017-11-16 12:00:00 12.4 3 Sudeste 10 Sudeste 0 -- -- 77
2017-11-16 11:00:00 9.5 4 Sur 11 Sudeste 0 -- -- 90
2017-11-16 10:00:00 6.6 6 Sur 9 Sur 0 -- -- 99
2017-11-16 09:00:00 3.7 4 Sur 10 Sur 0 -- -- 100
2017-11-16 08:00:00 3.2 6 Sur 11 Sur 0 -- -- 99
2017-11-16 07:00:00 3.3 5 Sur 10 Sur 0 -- -- 98
2017-11-16 06:00:00 3.5 5 Sur 11 Sur 0 -- -- 98
2017-11-16 05:00:00 3.3 7 Sur 12 Sudeste 0 -- -- 98
2017-11-16 04:00:00 3.6 6 Sur 16 Sudeste 0 -- -- 97
2017-11-16 03:00:00 3.8 6 Sur 15 Sur 0 -- -- 97
2017-11-16 02:00:00 4.2 6 Sur 21 Sudeste 0 -- -- 97
2017-11-16 01:00:00 4 6 Sur 18 Sudeste 0 -- -- 97
2017-11-16 00:00:00 4.2 7 Sur 19 Sudeste 0 -- -- 98
2017-11-15 23:00:00 4.7 7 Sur 11 Sudeste 0 -- -- 97
2017-11-15 22:00:00 5.2 6 Sur 10 Sur 0 -- -- 96
2017-11-15 21:00:00 5.9 5 Sur 10 Sur 0 -- -- 95
2017-11-15 20:00:00 6.8 7 Sur 10 Sur 0 -- -- 93
2017-11-15 19:00:00 8.3 2 Sur 6 Nordeste 0 -- -- 86
2017-11-15 18:00:00 11.3 6 Nordeste 21 Este 0 -- -- 77
2017-11-15 17:00:00 12.4 13 Nordeste 19 Nordeste 0 -- -- 73
2017-11-15 16:00:00 12.8 16 Nordeste 23 Nordeste 0 -- -- 69
2017-11-15 15:00:00 12.8 15 Nordeste 27 Nordeste 0 -- -- 65
2017-11-15 14:00:00 12.6 18 Nordeste 25 Nordeste 0 -- -- 63
2017-11-15 13:00:00 12.4 14 Nordeste 21 Nordeste 0 -- -- 61
2017-11-15 12:00:00 11.9 10 Este 20 Nordeste 0 -- -- 61
2017-11-15 11:00:00 10 6 Este 12 Este 0 -- -- 72
2017-11-15 10:00:00 6.1 6 Sur 15 Sudeste 0 -- -- 91
2017-11-15 09:00:00 3.4 6 Sur 19 Sudeste 0 -- -- 95
2017-11-15 08:00:00 2.8 6 Sur 12 Sudeste 0 -- -- 95
2017-11-15 07:00:00 3.7 5 Sudeste 17 Sudeste 0 -- -- 93
2017-11-15 06:00:00 4 7 Sur 13 Sur 0 -- -- 93
2017-11-15 05:00:00 4.2 8 Sur 13 Sur 0 -- -- 94
2017-11-15 04:00:00 4.1 9 Sur 18 Sudeste 0 -- -- 95
2017-11-15 03:00:00 4.5 7 Sur 15 Sudeste 0 -- -- 93
2017-11-15 02:00:00 4.9 9 Sur 19 Sudeste 0 -- -- 92
2017-11-15 01:00:00 5.3 10 Sur 19 Sudeste 0 -- -- 92
2017-11-15 00:00:00 4.9 10 Sur 17 Sur 0 -- -- 93
2017-11-14 23:00:00 5.2 8 Sur 15 Sur 0 -- -- 92
2017-11-14 22:00:00 5.5 10 Sur 17 Sur 0 -- -- 92
2017-11-14 21:00:00 5.9 10 Sur 16 Sur 0 -- -- 91
2017-11-14 20:00:00 6.6 7 Sur 12 Sur 0 -- -- 86
2017-11-14 19:00:00 7.8 5 Sur 12 Este 0 -- -- 79
2017-11-14 18:00:00 9.5 6 Este 22 Este 0 -- -- 71
2017-11-14 17:00:00 11.2 13 Este 23 Nordeste 0 -- -- 65
2017-11-14 16:00:00 11.9 14 Este 22 Nordeste 0 -- -- 65
2017-11-14 15:00:00 12.5 8 Este 19 Este 0 -- -- 64
2017-11-14 14:00:00 12.8 8 Este 16 Este 0 -- -- 64
2017-11-14 13:00:00 12.9 6 Este 17 Este 0 -- -- 65
2017-11-14 12:00:00 12.4 6 Este 13 Este 0 -- -- 67
2017-11-14 11:00:00 10.7 8 Sur 14 Sudeste 0 -- -- 84
2017-11-14 10:00:00 8.7 9 Sur 15 Sudeste 0 -- -- 92
2017-11-14 09:00:00 7.1 7 Sur 16 Sudeste 0 -- -- 95
2017-11-14 08:00:00 6.8 9 Sur 17 Sudeste 0 -- -- 96
2017-11-14 07:00:00 6.1 6 Sur 15 Sur 0 -- -- 96
2017-11-14 06:00:00 6.2 7 Sur 15 Sudeste 0 -- -- 97
2017-11-14 05:00:00 6.1 6 Sur 12 Sur 0 -- -- 98
2017-11-14 04:00:00 6.2 8 Sur 13 Sur 0 -- -- 97
2017-11-14 03:00:00 6.5 6 Sur 12 Sudeste 0 -- -- 96
2017-11-14 02:00:00 7.1 7 Sudeste 13 Sur 0 -- -- 96
2017-11-14 01:00:00 7.3 3 Sur 9 Sudeste 0 -- -- 94
2017-11-14 00:00:00 7.9 5 Sur 10 Sur 0 -- -- 94
2017-11-13 23:00:00 8.3 4 Sur 10 Sur 0 -- -- 92
2017-11-13 22:00:00 8.6 6 Sudeste 10 Sur 0 -- -- 92
2017-11-13 21:00:00 8.8 5 Sudeste 13 Noroeste 0 -- -- 88
2017-11-13 20:00:00 9.3 2 Noroeste 9 Noroeste 0 -- -- 85
2017-11-13 19:00:00 9.7 4 Sudoeste 15 Norte 0 -- -- 82
2017-11-13 18:00:00 11.8 6 Norte 14 Nordeste 0 -- -- 65
2017-11-13 17:00:00 12 6 Norte 22 Nordeste 0 -- -- 63
2017-11-13 16:00:00 12.2 7 Norte 23 Norte 0 -- -- 67
2017-11-13 15:00:00 12.8 9 Nordeste 23 Nordeste 0 -- -- 63
2017-11-13 14:00:00 13 12 Norte 26 Norte 0 -- -- 65
2017-11-13 13:00:00 12.2 12 Nordeste 27 Nordeste 0 -- -- 67
2017-11-13 12:00:00 12.6 7 Norte 29 Nordeste 0 -- -- 67
2017-11-13 11:00:00 11.4 12 Norte 29 Norte 0.6 -- -- 76
2017-11-13 10:00:00 12 14 Norte 27 Norte 0 -- -- 71
2017-11-13 09:00:00 12.5 12 Norte 28 Norte 0 -- -- 64
2017-11-13 08:00:00 12.2 12 Norte 24 Norte 0 -- -- 67
2017-11-13 07:00:00 12 11 Norte 30 Norte 0 -- -- 68
2017-11-13 06:00:00 12.7 14 Norte 29 Norte 0 -- -- 71
2017-11-13 05:00:00 12.8 12 Noroeste 37 Norte 0 -- -- 67
2017-11-13 04:00:00 12.7 12 Norte 33 Nordeste 0 -- -- 74
2017-11-13 03:00:00 13.4 15 Norte 31 Norte 0 -- -- 70
2017-11-13 02:00:00 13.5 14 Norte 28 Noroeste 0 -- -- 73
2017-11-13 01:00:00 13.6 12 Norte 26 Norte 0 -- -- 70
2017-11-13 00:00:00 13.7 12 Norte 27 Norte 0 -- -- 77
2017-11-12 23:00:00 13.7 14 Noroeste 30 Noroeste 0 -- -- 85
2017-11-12 22:00:00 14.5 9 Noroeste 26 Norte 0.6 -- -- 91
2017-11-12 21:00:00 14.8 10 Noroeste 27 Oeste 0.6 -- -- 92
2017-11-12 20:00:00 14.7 11 Oeste 34 Sudoeste 1.2 -- -- 93
2017-11-12 19:00:00 14.8 14 Oeste 31 Oeste 0.2 -- -- 92
2017-11-12 18:00:00 14.8 13 Oeste 30 Oeste 0.2 -- -- 93
2017-11-12 17:00:00 14.8 16 Oeste 35 Oeste 0.4 -- -- 92
2017-11-12 16:00:00 14.6 12 Oeste 33 Oeste 0.6 -- -- 91
2017-11-12 15:00:00 16.7 11 Oeste 28 Oeste 0 -- -- 74
2017-11-12 14:00:00 16 10 Sudoeste 30 Sudoeste 0 -- -- 76
2017-11-12 13:00:00 16.4 14 Oeste 34 Oeste 0 -- -- 73
2017-11-12 12:00:00 16 13 Oeste 32 Oeste 0 -- -- 74
2017-11-12 11:00:00 14.8 7 Oeste 18 Sur 0 -- -- 80
2017-11-12 10:00:00 13.6 9 Sudoeste 22 Sudoeste 0 -- -- 84
2017-11-12 09:00:00 14 8 Sudoeste 32 Oeste 0 -- -- 79
2017-11-12 08:00:00 14.5 13 Oeste 28 Oeste 0 -- -- 73
2017-11-12 07:00:00 14.7 14 Oeste 27 Oeste 0 -- -- 72
2017-11-12 06:00:00 14 5 Sudoeste 14 Sudoeste 0 -- -- 77
2017-11-12 05:00:00 14 6 Sudoeste 21 Oeste 0 -- -- 78
2017-11-12 04:00:00 14.4 4 Oeste 18 Oeste 0 -- -- 73
2017-11-12 03:00:00 14.4 4 Sudoeste 14 Oeste 0 -- -- 73
2017-11-12 02:00:00 14.3 7 Oeste 17 Oeste 0 -- -- 77
2017-11-12 01:00:00 14.3 8 Oeste 17 Sudoeste 0 -- -- 82
2017-11-12 00:00:00 14.8 9 Oeste 20 Sudoeste 0 -- -- 79
2017-11-11 23:00:00 14.9 8 Sudoeste 16 Sudoeste 0 -- -- 77
2017-11-11 22:00:00 14.9 7 Sudoeste 18 Oeste 0 -- -- 78
2017-11-11 21:00:00 14.5 4 Sudoeste 15 Sudoeste 0 -- -- 80
2017-11-11 20:00:00 14.6 7 Sudoeste 15 Oeste 0 -- -- 78
2017-11-11 19:00:00 14.6 4 Sudoeste 16 Oeste 0 -- -- 76
2017-11-11 18:00:00 14.7 6 Oeste 18 Oeste 0 -- -- 76
2017-11-11 17:00:00 15.1 4 Sudoeste 24 Oeste 0 -- -- 74
2017-11-11 16:00:00 15.4 10 Oeste 33 Oeste 0 -- -- 73
2017-11-11 15:00:00 16 13 Oeste 35 Noroeste 0 -- -- 70
2017-11-11 14:00:00 15.6 15 Oeste 33 Oeste 0 -- -- 76
2017-11-11 13:00:00 15.1 12 Oeste 22 Oeste 0 -- -- 79
2017-11-11 12:00:00 14.4 11 Sudoeste 21 Oeste 0 -- -- 80
2017-11-11 11:00:00 13.9 8 Oeste 28 Sudoeste 0 -- -- 84
2017-11-11 10:00:00 13.6 11 Oeste 21 Oeste 0 -- -- 84
2017-11-11 09:00:00 12.6 7 Sudoeste 25 Sudoeste 0.2 -- -- 93
2017-11-11 08:00:00 13.3 9 Oeste 19 Oeste 0 -- -- 87
2017-11-11 07:00:00 13.2 8 Sudoeste 18 Oeste 0 -- -- 88
2017-11-11 06:00:00 13 12 Oeste 27 Oeste 0 -- -- 88
2017-11-11 05:00:00 13.1 9 Oeste 32 Oeste 0 -- -- 89
2017-11-11 04:00:00 13 16 Oeste 27 Oeste 0 -- -- 92
2017-11-11 03:00:00 12.7 8 Oeste 21 Oeste 0.4 -- -- 94
2017-11-11 02:00:00 13 8 Oeste 15 Sudoeste 0 -- -- 93
2017-11-11 01:00:00 13.1 5 Oeste 18 Oeste 0 -- -- 91
2017-11-11 00:00:00 13.4 5 Sudoeste 11 Oeste 0.4 -- -- 93
2017-11-10 23:00:00 13.4 6 Oeste 14 Oeste 0 -- -- 90
2017-11-10 22:00:00 13.6 4 Oeste 19 Oeste 0 -- -- 90
2017-11-10 21:00:00 13.4 6 Oeste 16 Oeste 0 -- -- 92
2017-11-10 20:00:00 13.2 6 Oeste 15 Oeste 0.2 -- -- 93
2017-11-10 19:00:00 13.4 10 Noroeste 32 Noroeste 0.4 -- -- 92
2017-11-10 18:00:00 14.2 8 Oeste 19 Noroeste 0 -- -- 88
2017-11-10 17:00:00 14.5 9 Noroeste 22 Noroeste 0.2 -- -- 87
2017-11-10 16:00:00 14.6 8 Noroeste 19 Oeste 0.4 -- -- 90
2017-11-10 15:00:00 14.5 15 Oeste 30 Noroeste 0 -- -- 87
2017-11-10 14:00:00 15.2 14 Noroeste 27 Noroeste 0.6 -- -- 88
2017-11-10 13:00:00 14.8 13 Noroeste 21 Noroeste 0.6 -- -- 94
2017-11-10 12:00:00 14.4 7 Noroeste 19 Noroeste 0.2 -- -- 97
2017-11-10 11:00:00 13.7 13 Noroeste 28 Noroeste 0.8 -- -- 97
2017-11-10 10:00:00 14 4 Oeste 15 Oeste 1.2 -- -- 99
2017-11-10 09:00:00 12.9 6 Oeste 13 Oeste 0.4 -- -- 100
2017-11-10 08:00:00 12.2 2 Norte 7 Noroeste 5.2 -- -- 100
2017-11-10 07:00:00 11.4 3 Sudeste 9 Sudeste 2.6 -- -- 100
2017-11-10 06:00:00 11.2 6 Sudeste 9 Sudeste 0 -- -- 100
2017-11-10 05:00:00 10.9 4 Sudeste 12 Sudeste 0.6 -- -- 100
2017-11-10 04:00:00 10.3 4 Sur 13 Sudeste 0 -- -- 100
2017-11-10 03:00:00 10.1 6 Sur 13 Sudeste 0.2 -- -- 99
2017-11-10 02:00:00 10 6 Sur 12 Sudeste 0.6 -- -- 99
2017-11-10 01:00:00 9.9 6 Sudeste 12 Sudeste 0.6 -- -- 98
2017-11-10 00:00:00 9.9 8 Sudeste 14 Sudeste 0.2 -- -- 98
2017-11-09 23:00:00 9.7 8 Sur 15 Sudeste 0 -- -- 96
2017-11-09 22:00:00 9.7 9 Sudeste 14 Sudeste 0 -- -- 92
2017-11-09 21:00:00 10 5 Sudeste 12 Sudeste 0 -- -- 88
2017-11-09 20:00:00 10 7 Sudeste 14 Sudeste 0 -- -- 85
2017-11-09 19:00:00 10.8 2 Oeste 12 Oeste 0 -- -- 72
2017-11-09 18:00:00 11.8 7 Oeste 12 Oeste 0 -- -- 68
2017-11-09 17:00:00 13.4 6 Noroeste 18 Noroeste 0 -- -- 65
2017-11-09 16:00:00 14.2 11 Noroeste 22 Noroeste 0 -- -- 59
2017-11-09 15:00:00 14.2 13 Noroeste 22 Oeste 0 -- -- 61
2017-11-09 14:00:00 13.7 9 Noroeste 22 Noroeste 0 -- -- 60
2017-11-09 13:00:00 13.6 9 Noroeste 22 Noroeste 0 -- -- 61
2017-11-09 12:00:00 12.9 7 Noroeste 17 Oeste 0 -- -- 72
2017-11-09 11:00:00 11.8 8 Oeste 16 Noroeste 0 -- -- 83
2017-11-09 10:00:00 9.5 6 Sur 13 Sudeste 0 -- -- 96
2017-11-09 09:00:00 8.7 8 Sur 13 Este 0.2 -- -- 96
2017-11-09 08:00:00 8.6 8 Sur 12 Sudeste 0 -- -- 95
2017-11-09 07:00:00 8.7 6 Sudeste 20 Oeste 1.8 -- -- 93
2017-11-09 06:00:00 9 2 Sur 16 Oeste 1.4 -- -- 92
2017-11-09 05:00:00 9.1 4 Oeste 21 Oeste 0.4 -- -- 90
2017-11-09 04:00:00 8.6 4 Sur 19 Sudoeste 0 -- -- 93
2017-11-09 03:00:00 7.9 5 Sudeste 19 Sudoeste 0.8 -- -- 93
2017-11-09 02:00:00 7.8 5 Sur 14 Sur 0 -- -- 96
2017-11-09 01:00:00 7.9 5 Sur 15 Sur 0 -- -- 96
2017-11-09 00:00:00 7.6 6 Sudeste 13 Sudeste 0 -- -- 97
2017-11-08 23:00:00 8.1 9 Sur 15 Sudeste 0.8 -- -- 97
2017-11-08 22:00:00 7.7 6 Sudeste 14 Sudeste 0.4 -- -- 98
2017-11-08 21:00:00 7 4 Sur 14 Sudeste 0 -- -- 98
2017-11-08 20:00:00 7.4 6 Sur 13 Sur 0 -- -- 97
2017-11-08 19:00:00 7.9 7 Sur 17 Sudeste 0.2 -- -- 95
2017-11-08 18:00:00 8.8 8 Sur 13 Sudoeste 0.2 -- -- 94
2017-11-08 17:00:00 9.2 5 Nordeste 26 Norte 5.4 -- -- 88
2017-11-08 16:00:00 10.6 8 Sur 16 Sur 0 -- -- 90
2017-11-08 15:00:00 10.1 7 Sur 13 Sudoeste 0.2 -- -- 92
2017-11-08 14:00:00 10 4 Oeste 19 Noroeste 0.8 -- -- 87
2017-11-08 13:00:00 9.6 11 Oeste 35 Sudoeste 6.4 -- -- 94
2017-11-08 12:00:00 10 13 Sudoeste 32 Oeste 3 -- -- 90
2017-11-08 11:00:00 10 15 Oeste 31 Sudoeste 1.4 -- -- 87
2017-11-08 10:00:00 9.7 14 Sudoeste 26 Oeste 0.2 -- -- 89
2017-11-08 09:00:00 9.4 13 Oeste 27 Sudoeste 3.6 -- -- 88
2017-11-08 08:00:00 10.2 11 Sudoeste 23 Oeste 0 -- -- 81
2017-11-08 07:00:00 10.2 8 Sudoeste 33 Oeste 0.4 -- -- 81
2017-11-08 06:00:00 11.7 8 Oeste 20 Noroeste 0.2 -- -- 73
2017-11-08 05:00:00 11.9 7 Oeste 24 Noroeste 0 -- -- 75
2017-11-08 04:00:00 11.7 5 Oeste 26 Oeste 0 -- -- 81
2017-11-08 03:00:00 11.3 7 Oeste 20 Noroeste 0.4 -- -- 85
2017-11-08 02:00:00 11.1 10 Oeste 26 Noroeste 0.4 -- -- 89
2017-11-08 01:00:00 11.6 10 Oeste 28 Norte 0.4 -- -- 86
2017-11-08 00:00:00 12.9 11 Noroeste 26 Norte 0 -- -- 76
2017-11-07 23:00:00 13.4 16 Noroeste 28 Noroeste 0.2 -- -- 70
2017-11-07 22:00:00 13.1 9 Noroeste 25 Noroeste 0.8 -- -- 87
2017-11-07 21:00:00 12.4 9 Oeste 31 Oeste 3.8 -- -- 93
2017-11-07 20:00:00 12.4 8 Sudoeste 22 Oeste 0 -- -- 91
2017-11-07 19:00:00 11.4 6 Sur 16 Sudoeste 0.2 -- -- 92
2017-11-07 18:00:00 11.9 8 Oeste 18 Oeste 0.2 -- -- 83
2017-11-07 17:00:00 13.3 5 Oeste 12 Nordeste 0 -- -- 74
2017-11-07 16:00:00 13.8 9 Nordeste 17 Nordeste 0 -- -- 65
2017-11-07 15:00:00 14.4 10 Nordeste 15 Nordeste 0 -- -- 66
2017-11-07 14:00:00 14.6 7 Nordeste 17 Este 0 -- -- 61
2017-11-07 13:00:00 14.4 8 Nordeste 16 Norte 0 -- -- 69
2017-11-07 12:00:00 13.6 4 Nordeste 15 Sudeste 0 -- -- 70
2017-11-07 11:00:00 11.4 9 Sudeste 17 Sudeste 0 -- -- 88
2017-11-07 10:00:00 9.5 10 Sudeste 21 Sudeste 0 -- -- 97
2017-11-07 09:00:00 8.1 9 Sur 16 Sudeste 0 -- -- 97
2017-11-07 08:00:00 8.4 9 Sudeste 16 Sur 0 -- -- 96
2017-11-07 07:00:00 9.3 6 Sudeste 14 Sudeste 0 -- -- 95
2017-11-07 06:00:00 9.7 7 Sur 16 Sudeste 0 -- -- 95
2017-11-07 05:00:00 9.8 9 Sudeste 15 Sur 0 -- -- 96
2017-11-07 04:00:00 9.5 7 Sur 15 Sudeste 0 -- -- 97
2017-11-07 03:00:00 9.4 7 Sur 14 Sudeste 0 -- -- 97
2017-11-07 02:00:00 9.5 6 Sur 13 Sudeste 0.2 -- -- 95
2017-11-07 01:00:00 9.9 5 Sudoeste 13 Sudeste 0.6 -- -- 92
2017-11-07 00:00:00 10.2 8 Sudeste 17 Sudeste 0.2 -- -- 88
2017-11-06 23:00:00 9.3 5 Sur 11 Sudeste 0 -- -- 92
2017-11-06 22:00:00 9 5 Sur 13 Sur 0 -- -- 93
2017-11-06 21:00:00 8.5 9 Sur 12 Sur 0 -- -- 93
2017-11-06 20:00:00 9 4 Sur 8 Sur 0 -- -- 88
2017-11-06 19:00:00 11.1 3 Noroeste 9 Oeste 0 -- -- 79
2017-11-06 18:00:00 12.3 4 Oeste 17 Noroeste 0 -- -- 72
2017-11-06 17:00:00 13.8 8 Norte 20 Norte 0 -- -- 64
2017-11-06 16:00:00 14.2 5 Noroeste 22 Norte 0 -- -- 66
2017-11-06 15:00:00 14.5 12 Norte 25 Norte 0 -- -- 65
2017-11-06 14:00:00 15.2 9 Norte 26 Norte 0 -- -- 61
2017-11-06 13:00:00 15 9 Norte 26 Norte 0 -- -- 62
2017-11-06 12:00:00 14.8 12 Norte 23 Norte 0 -- -- 63
2017-11-06 11:00:00 13 5 Noroeste 14 Oeste 0 -- -- 77
2017-11-06 10:00:00 11.5 4 Nordeste 10 Sudeste 0 -- -- 92
2017-11-06 09:00:00 10 3 Sur 9 Sur 0 -- -- 95
2017-11-06 08:00:00 10.1 4 Sur 17 Norte 0 -- -- 91
2017-11-06 07:00:00 11.4 6 Norte 13 Norte 0 -- -- 84
2017-11-06 06:00:00 10.8 5 Oeste 17 Oeste 0.4 -- -- 87
2017-11-06 05:00:00 11.2 11 Oeste 21 Oeste 0.6 -- -- 86
2017-11-06 04:00:00 12.3 9 Noroeste 22 Noroeste 0 -- -- 74
2017-11-06 03:00:00 12.6 10 Noroeste 25 Noroeste 0.4 -- -- 73
2017-11-06 02:00:00 13.1 10 Norte 25 Norte 0 -- -- 76
2017-11-06 01:00:00 11.7 8 Noroeste 17 Noroeste 0 -- -- 87
2017-11-06 00:00:00 11.3 8 Oeste 21 Oeste 1.6 -- -- 91
2017-11-05 23:00:00 11.8 8 Noroeste 27 Oeste 1.2 -- -- 90
2017-11-05 22:00:00 11.5 12 Noroeste 44 Noroeste 1.6 -- -- 86
2017-11-05 21:00:00 11.8 6 Noroeste 28 Noroeste 0.2 -- -- 84
2017-11-05 20:00:00 12.1 13 Oeste 35 Sudoeste 0.6 -- -- 87
2017-11-05 19:00:00 12.7 12 Oeste 24 Noroeste 0.2 -- -- 82
2017-11-05 18:00:00 11.7 9 Sudoeste 18 Oeste 0 -- -- 88
2017-11-05 17:00:00 12.5 10 Oeste 24 Oeste 0.8 -- -- 89
2017-11-05 16:00:00 12.5 8 Sudoeste 27 Oeste 1.8 -- -- 88
2017-11-05 15:00:00 13.1 9 Oeste 29 Oeste 1.8 -- -- 86
2017-11-05 14:00:00 13 5 Oeste 24 Norte 0.6 -- -- 88
2017-11-05 13:00:00 12.3 6 Oeste 28 Oeste 2.8 -- -- 91
2017-11-05 12:00:00 13.2 6 Oeste 30 Oeste 0 -- -- 87
2017-11-05 11:00:00 12.9 17 Oeste 34 Oeste 0 -- -- 85
2017-11-05 10:00:00 11.5 11 Oeste 27 Oeste 0 -- -- 88
2017-11-05 09:00:00 11 8 Sudoeste 33 Oeste 2.8 -- -- 92
2017-11-05 08:00:00 11.3 5 Sudoeste 18 Sudoeste 0 -- -- 86
2017-11-05 07:00:00 11.3 10 Sudoeste 20 Oeste 0 -- -- 87
2017-11-05 06:00:00 11.8 6 Oeste 18 Oeste 0 -- -- 83
2017-11-05 05:00:00 11.5 5 Sudoeste 15 Sudoeste 0 -- -- 86
2017-11-05 04:00:00 11.9 7 Sudoeste 16 Sudoeste 0.2 -- -- 89
2017-11-05 03:00:00 12.3 11 Oeste 35 Noroeste 2.2 -- -- 90
2017-11-05 02:00:00 13.9 10 Noroeste 27 Noroeste 0.2 -- -- 81
2017-11-05 01:00:00 14 10 Noroeste 29 Oeste 0.2 -- -- 87
2017-11-05 00:00:00 13.7 6 Noroeste 29 Noroeste 1.8 -- -- 93
2017-11-04 23:00:00 14.4 7 Noroeste 18 Noroeste 0 -- -- 91
2017-11-04 22:00:00 14.4 9 Noroeste 29 Oeste 2.4 -- -- 95
2017-11-04 21:00:00 14 9 Oeste 21 Oeste 0.4 -- -- 93
2017-11-04 20:00:00 13.8 8 Oeste 22 Oeste 0.4 -- -- 93
2017-11-04 19:00:00 14.1 8 Sudoeste 18 Oeste 0.4 -- -- 95
2017-11-04 18:00:00 14.2 3 Sudoeste 20 Oeste 1.2 -- -- 95
2017-11-04 17:00:00 14.6 9 Oeste 18 Oeste 4 -- -- 95
2017-11-04 16:00:00 15.3 12 Noroeste 26 Oeste 4.2 -- -- 92
2017-11-04 15:00:00 17 9 Noroeste 20 Noroeste 0 -- -- 87
2017-11-04 14:00:00 16.8 7 Noroeste 14 Noroeste 0.2 -- -- 89
2017-11-04 13:00:00 15.6 3 Sudeste 8 Sudeste 0 -- -- 86
2017-11-04 12:00:00 14.9 6 Sur 15 Sur 0 -- -- 86
2017-11-04 11:00:00 13.9 8 Sudeste 14 Sudeste 0 -- -- 90
2017-11-04 10:00:00 13 3 Sudoeste 19 Sudeste 0 -- -- 94
2017-11-04 09:00:00 12.3 4 Sur 14 Sudeste 0 -- -- 97
2017-11-04 08:00:00 11.3 9 Sudeste 15 Sudeste 0 -- -- 98
2017-11-04 07:00:00 10.7 12 Sudeste 17 Sudeste 0 -- -- 99
2017-11-04 06:00:00 10.3 3 Sur 11 Sur 0 -- -- 100
2017-11-04 05:00:00 10.4 4 Sur 11 Sur 0 -- -- 99
2017-11-04 04:00:00 10.2 4 Sur 9 Sur 0 -- -- 99
2017-11-04 03:00:00 10.8 3 Sudoeste 6 Sudeste 0 -- -- 99
2017-11-04 02:00:00 11.3 6 Sudeste 10 Sudeste 0 -- -- 98
2017-11-04 01:00:00 10.9 6 Sur 14 Sudeste 0 -- -- 98
2017-11-04 00:00:00 11.3 7 Sur 14 Sudeste 0 -- -- 97
2017-11-03 23:00:00 11.7 8 Sur 12 Sur 0 -- -- 98
2017-11-03 22:00:00 12.6 2 Sur 9 Sur 0 -- -- 96
2017-11-03 21:00:00 13.3 6 Sur 11 Sur 0 -- -- 97
2017-11-03 20:00:00 13.5 4 Sudeste 8 Sur 0 -- -- 95
2017-11-03 19:00:00 14.7 4 Noroeste 7 Noroeste 0 -- -- 91
2017-11-03 18:00:00 17.1 4 Noroeste 12 Norte 0 -- -- 85
2017-11-03 17:00:00 18.6 5 Nordeste 15 Norte 0 -- -- 76
2017-11-03 16:00:00 19.3 8 Norte 20 Norte 0 -- -- 73
2017-11-03 15:00:00 19.8 6 Nordeste 20 Nordeste 0 -- -- 73
2017-11-03 14:00:00 19.1 8 Este 17 Nordeste 0 -- -- 76
2017-11-03 13:00:00 19.2 7 Nordeste 14 Nordeste 0 -- -- 71
2017-11-03 12:00:00 19.3 5 Norte 9 Norte 0 -- -- 68
2017-11-03 11:00:00 17.5 5 Noroeste 9 Oeste 0 -- -- 82
2017-11-03 10:00:00 15.3 4 Sur 10 Sudoeste 0 -- -- 93
2017-11-03 09:00:00 14.2 3 Sudoeste 10 Sudeste 0.2 -- -- 96
2017-11-03 08:00:00 13.7 5 Sur 11 Sudeste 0 -- -- 96
2017-11-03 07:00:00 13.6 0 Calma 12 Sur 0.6 -- -- 96
2017-11-03 06:00:00 13.2 5 Sur 10 Sur 0 -- -- 95
2017-11-03 05:00:00 13.1 3 Sur 10 Sur 0 -- -- 95
2017-11-03 04:00:00 12.7 0 Calma 8 Sur 0 -- -- 93
2017-11-03 03:00:00 13 4 Sur 8 Sur 0 -- -- 93
2017-11-03 02:00:00 13.3 6 Sur 10 Sudeste 0 -- -- 92
2017-11-03 01:00:00 14.3 5 Sudeste 6 Sudeste 0 -- -- 89
2017-11-03 00:00:00 15.5 0 Calma 5 Nordeste 0 -- -- 88
2017-11-02 23:00:00 16.9 4 Norte 13 Noroeste 0 -- -- 81
2017-11-02 22:00:00 18.7 7 Noroeste 13 Noroeste 0 -- -- 65
2017-11-02 21:00:00 18.1 0 Calma 17 Sur 0 -- -- 66
2017-11-02 20:00:00 20.8 10 Sur 21 Sur 0 -- -- 53
2017-11-02 19:00:00 20.8 8 Sur 15 Sur 0 -- -- 57
2017-11-02 18:00:00 21.2 7 Sur 17 Sur 0 -- -- 55
2017-11-02 17:00:00 22.2 8 Sur 21 Sur 0 -- -- 53
2017-11-02 16:00:00 22.8 10 Sur 19 Sur 0 -- -- 52
2017-11-02 15:00:00 23.4 8 Sudeste 21 Sudeste 0 -- -- 54
2017-11-02 14:00:00 24.5 7 Sur 21 Sudeste 0 -- -- 50
2017-11-02 13:00:00 23.4 10 Sudeste 23 Sudeste 0 -- -- 55
2017-11-02 12:00:00 23.2 11 Sudeste 22 Sudeste 0 -- -- 56
2017-11-02 11:00:00 21.7 7 Sudeste 22 Sudeste 0 -- -- 62
2017-11-02 10:00:00 16.6 4 Sudeste 8 Sudeste 0 -- -- 80
2017-11-02 09:00:00 10.5 3 Noroeste 5 Noroeste 0 -- -- 94
2017-11-02 08:00:00 10.8 2 Sudeste 10 Sudeste 0 -- -- 90
2017-11-02 07:00:00 11.7 4 Sudoeste 10 Sudeste 0 -- -- 88
2017-11-02 06:00:00 13.3 4 Sur 11 Sur 0 -- -- 83
2017-11-02 05:00:00 12.2 5 Sur 11 Sudeste 0 -- -- 92
2017-11-02 04:00:00 11.2 2 Sudoeste 9 Sudeste 0 -- -- 92
2017-11-02 03:00:00 11.4 4 Noroeste 10 Noroeste 0 -- -- 90
2017-11-02 02:00:00 12.1 4 Oeste 9 Sudoeste 0 -- -- 89
2017-11-02 01:00:00 12.7 4 Oeste 10 Oeste 0 -- -- 84
2017-11-02 00:00:00 15 4 Sudoeste 12 Sudeste 0 -- -- 76
2017-11-01 23:00:00 15.7 6 Sur 17 Sudeste 0 -- -- 73
2017-11-01 22:00:00 16.6 8 Sur 20 Sur 0 -- -- 69
2017-11-01 21:00:00 16.4 13 Sur 20 Sur 0 -- -- 73
2017-11-01 20:00:00 15.7 8 Sur 17 Sudeste 0 -- -- 81
2017-11-01 19:00:00 14.9 2 Sur 8 Sur 0 -- -- 87
2017-11-01 18:00:00 17.3 3 Sur 6 Noroeste 0 -- -- 81
2017-11-01 17:00:00 21.1 3 Oeste 13 Nordeste 0 -- -- 67
2017-11-01 16:00:00 22.4 6 Nordeste 11 Nordeste 0 -- -- 58
2017-11-01 15:00:00 22.9 5 Nordeste 10 Norte 0 -- -- 56
2017-11-01 14:00:00 22.4 4 Nordeste 8 Nordeste 0 -- -- 59
2017-11-01 13:00:00 21.7 3 Este 6 Este 0 -- -- 58
2017-11-01 12:00:00 20.4 4 Sudeste 8 Sudeste 0 -- -- 68
2017-11-01 11:00:00 16.8 5 Sudeste 8 Sur 0 -- -- 78
2017-11-01 10:00:00 13 7 Sur 24 Sur 0 -- -- 83
2017-11-01 09:00:00 10.2 12 Sur 23 Este 0 -- -- 93
2017-11-01 08:00:00 7.4 3 Sur 13 Sur 0 -- -- 97
2017-11-01 07:00:00 7.2 5 Sur 10 Sudeste 0 -- -- 97
2017-11-01 06:00:00 7.8 5 Sur 17 Sur 0 -- -- 98
2017-11-01 05:00:00 7.5 8 Sur 15 Sur 0 -- -- 100
2017-11-01 04:00:00 7 5 Sur 14 Sur 0 -- -- 99
2017-11-01 03:00:00 7.5 7 Sur 12 Sur 0 -- -- 100
2017-11-01 02:00:00 7.4 6 Sur 10 Sur 0 -- -- 99
2017-11-01 01:00:00 7.9 5 Sur 12 Sur 0 -- -- 98
2017-11-01 00:00:00 8.4 4 Sur 12 Sur 0 -- -- 98
2017-10-31 23:00:00 8.7 6 Sur 12 Sur 0 -- -- 97
2017-10-31 22:00:00 8.8 7 Sur 10 Sur 0 -- -- 97
2017-10-31 21:00:00 9.8 2 Sudoeste 9 Sur 0 -- -- 94
2017-10-31 20:00:00 10.9 3 Sur 9 Sudeste 0 -- -- 93
2017-10-31 19:00:00 12.2 4 Sudeste 12 Este 0 -- -- 86
2017-10-31 18:00:00 14.5 8 Nordeste 19 Nordeste 0 -- -- 81
2017-10-31 17:00:00 15.6 14 Nordeste 24 Nordeste 0 -- -- 75
2017-10-31 16:00:00 15.2 18 Nordeste 30 Nordeste 0 -- -- 74
2017-10-31 15:00:00 15.1 21 Nordeste 30 Nordeste 0 -- -- 72
2017-10-31 14:00:00 14.8 17 Nordeste 28 Nordeste 0 -- -- 71
2017-10-31 13:00:00 14.5 17 Nordeste 24 Nordeste 0 -- -- 69
2017-10-31 12:00:00 14.7 8 Este 22 Este 0 -- -- 66
2017-10-31 11:00:00 14 7 Sudeste 13 Sudeste 0 -- -- 73
2017-10-31 10:00:00 11.5 10 Sudeste 17 Sudeste 0 -- -- 89
2017-10-31 09:00:00 9.6 10 Sur 18 Sur 0 -- -- 95
2017-10-31 08:00:00 9.7 8 Sur 16 Sudeste 0 -- -- 95
2017-10-31 07:00:00 9.7 10 Sudeste 18 Sudeste 0 -- -- 96
2017-10-31 06:00:00 9.6 5 Sur 13 Sudeste 0 -- -- 96
2017-10-31 05:00:00 9.5 4 Sur 11 Sur 0 -- -- 96
2017-10-31 04:00:00 9.3 6 Sur 12 Sur 0 -- -- 96
2017-10-31 03:00:00 9.3 7 Sur 10 Sur 0 -- -- 97
2017-10-31 02:00:00 9.4 5 Sur 10 Sudeste 0 -- -- 96
2017-10-31 01:00:00 9.7 7 Sur 13 Sur 0 -- -- 96
2017-10-31 00:00:00 10.1 5 Sur 10 Sur 0 -- -- 95
2017-10-30 23:00:00 10.7 8 Sur 10 Sur 0 -- -- 92
2017-10-30 22:00:00 11.4 5 Sur 11 Sur 0 -- -- 91
2017-10-30 21:00:00 12.2 4 Oeste 9 Sudoeste 0 -- -- 82
2017-10-30 20:00:00 13.8 5 Nordeste 15 Norte 0 -- -- 66
2017-10-30 19:00:00 13.9 7 Nordeste 18 Este 0 -- -- 69
2017-10-30 18:00:00 14.1 8 Nordeste 18 Norte 0 -- -- 70
2017-10-30 17:00:00 14.5 9 Nordeste 22 Norte 0 -- -- 70
2017-10-30 16:00:00 14.8 11 Nordeste 24 Norte 0 -- -- 73
2017-10-30 15:00:00 15 8 Nordeste 21 Nordeste 0 -- -- 78
2017-10-30 14:00:00 15.6 16 Nordeste 29 Nordeste 0 -- -- 77
2017-10-30 13:00:00 15.5 11 Nordeste 20 Nordeste 0.4 -- -- 87
2017-10-30 12:00:00 14.9 5 Nordeste 25 Este 0 -- -- 91
2017-10-30 11:00:00 15.9 6 Norte 23 Noroeste 0 -- -- 90
2017-10-30 10:00:00 15.6 4 Oeste 11 Noroeste 0.2 -- -- 96
2017-10-30 09:00:00 14.7 6 Oeste 11 Noroeste 0.2 -- -- 97
2017-10-30 08:00:00 14.6 4 Noroeste 15 Norte 1.4 -- -- 98
2017-10-30 07:00:00 14.2 3 Nordeste 13 Oeste 0.4 -- -- 97
2017-10-30 06:00:00 14.1 5 Oeste 12 Oeste 1.4 -- -- 97
2017-10-30 05:00:00 14.5 6 Oeste 16 Oeste 0.4 -- -- 95
2017-10-30 04:00:00 14.4 8 Oeste 15 Oeste 0 -- -- 95
2017-10-30 03:00:00 14.3 7 Oeste 13 Oeste 0 -- -- 96
2017-10-30 02:00:00 14 2 Oeste 7 Sudeste 0 -- -- 97
2017-10-30 01:00:00 13.8 7 Sudeste 10 Sudeste 0 -- -- 97
2017-10-30 00:00:00 13.8 3 Sudoeste 8 Sudoeste 0 -- -- 97
2017-10-29 23:00:00 13.9 4 Sur 6 Sur 0.2 -- -- 96
2017-10-29 22:00:00 14.2 3 Noroeste 6 Noroeste 0.4 -- -- 94
2017-10-29 21:00:00 14.4 2 Noroeste 6 Oeste 0 -- -- 92
2017-10-29 20:00:00 14.8 3 Oeste 11 Oeste 0.2 -- -- 88
2017-10-29 19:00:00 14.9 4 Sudoeste 18 Sudoeste 0 -- -- 84
2017-10-29 18:00:00 15.3 9 Oeste 15 Oeste 0 -- -- 81
2017-10-29 17:00:00 15.6 8 Oeste 18 Oeste 0 -- -- 80
2017-10-29 16:00:00 16.2 8 Oeste 13 Oeste 0 -- -- 78
2017-10-29 15:00:00 16.5 5 Oeste 12 Oeste 0 -- -- 76
2017-10-29 14:00:00 16 2 Sur 6 Oeste 0 -- -- 83
2017-10-29 13:00:00 15.5 2 Sur 8 Sudeste 0 -- -- 82
2017-10-29 12:00:00 15.2 7 Sudeste 10 Sur 0 -- -- 84
2017-10-29 11:00:00 13.4 6 Sudeste 12 Sur 0 -- -- 91
2017-10-29 10:00:00 11.7 8 Sur 17 Sudeste 0 -- -- 95
2017-10-29 09:00:00 10.3 9 Sur 19 Sudeste 0 -- -- 98
2017-10-29 08:00:00 9.3 9 Sur 17 Sudeste 0 -- -- 99
2017-10-29 07:00:00 9 8 Sur 23 Sudeste 0 -- -- 99
2017-10-29 06:00:00 8.9 9 Sur 18 Sudeste 0 -- -- 99
2017-10-29 05:00:00 8.7 8 Sur 19 Sudeste 0 -- -- 99
2017-10-29 04:00:00 8.4 8 Sur 18 Sudeste 0 -- -- 98
2017-10-29 03:00:00 9.1 5 Sur 18 Sudeste 0 -- -- 98
2017-10-29 02:00:00 9.4 7 Sur 14 Sur 0 -- -- 98
2017-10-29 01:00:00 10.5 6 Sur 16 Sudeste 0 -- -- 98
2017-10-29 00:00:00 10.2 7 Sur 12 Sur 0 -- -- 98
2017-10-28 23:00:00 10.9 8 Sur 13 Sur 0 -- -- 97
2017-10-28 22:00:00 11.9 4 Sudeste 9 Sur 0 -- -- 95
2017-10-28 21:00:00 12.5 2 Sudeste 5 Sur 0 -- -- 91
2017-10-28 20:00:00 14.3 0 Calma 6 Este 0 -- -- 86
2017-10-28 19:00:00 16.7 8 Este 15 Nordeste 0 -- -- 80
2017-10-28 18:00:00 17.5 10 Nordeste 21 Este 0 -- -- 82
2017-10-28 17:00:00 18.1 10 Nordeste 17 Nordeste 0 -- -- 80
2017-10-28 16:00:00 18.1 12 Nordeste 15 Nordeste 0 -- -- 81
2017-10-28 15:00:00 18.9 3 Sudeste 7 Este 0 -- -- 79
2017-10-28 14:00:00 18.6 6 Sudoeste 12 Oeste 0 -- -- 83
2017-10-28 13:00:00 17.2 2 Sudoeste 6 Oeste 0 -- -- 90
2017-10-28 12:00:00 16.8 2 Sudeste 7 Sudeste 0 -- -- 90
2017-10-28 11:00:00 16.3 4 Sur 8 Sudeste 0 -- -- 94
2017-10-28 10:00:00 14.7 5 Sudeste 8 Sudeste 0 -- -- 96
2017-10-28 09:00:00 14.8 0 Calma 6 Sudeste 0 -- -- 95
2017-10-28 08:00:00 14.7 5 Sur 8 Sur 0 -- -- 95
2017-10-28 07:00:00 15 5 Sur 7 Sur 0 -- -- 95
2017-10-28 06:00:00 15 3 Sudeste 5 Sudeste 0 -- -- 95
2017-10-28 05:00:00 15 4 Sudeste 6 Sudeste 0 -- -- 94
2017-10-28 04:00:00 15.2 3 Sudeste 5 Sudeste 0 -- -- 93
2017-10-28 03:00:00 15.5 0 Calma 7 Sur 0 -- -- 91
2017-10-28 02:00:00 16.2 4 Oeste 7 Oeste 0 -- -- 88
2017-10-28 01:00:00 16.3 3 Noroeste 6 Noroeste 0 -- -- 90
2017-10-28 00:00:00 16.6 5 Noroeste 10 Noroeste 0 -- -- 89
2017-10-27 23:00:00 17.1 5 Noroeste 13 Noroeste 0.2 -- -- 91
2017-10-27 22:00:00 17.4 4 Oeste 8 Sudoeste 0 -- -- 89
2017-10-27 21:00:00 17.5 4 Oeste 9 Oeste 0 -- -- 89
2017-10-27 20:00:00 17.8 5 Noroeste 10 Noroeste 0 -- -- 88
2017-10-27 19:00:00 18.3 6 Noroeste 12 Noroeste 0 -- -- 85
2017-10-27 18:00:00 19 7 Noroeste 14 Norte 0 -- -- 79
2017-10-27 17:00:00 19.1 8 Norte 17 Noroeste 0 -- -- 82
2017-10-27 16:00:00 19.7 9 Norte 17 Norte 0 -- -- 83
2017-10-27 15:00:00 20.1 11 Norte 17 Norte 0 -- -- 80
2017-10-27 14:00:00 20.1 6 Norte 11 Nordeste 0 -- -- 76
2017-10-27 13:00:00 19.4 2 Sudeste 6 Sudeste 0 -- -- 82
2017-10-27 12:00:00 15.7 5 Sur 10 Sur 0 -- -- 92
2017-10-27 11:00:00 13.6 6 Sur 15 Sudeste 0 -- -- 98
2017-10-27 10:00:00 12 9 Sudeste 15 Sudeste 0 -- -- 100
2017-10-27 09:00:00 10.6 5 Sur 13 Sudeste 0 -- -- 100
2017-10-27 08:00:00 10.6 4 Sur 8 Sur 0 -- -- 99
2017-10-27 07:00:00 10.7 5 Sur 12 Sur 0 -- -- 98
2017-10-27 06:00:00 10.9 3 Sur 9 Sur 0 -- -- 98
2017-10-27 05:00:00 11.6 5 Sur 13 Sur 0 -- -- 98
2017-10-27 04:00:00 11.8 4 Sudoeste 12 Sur 0 -- -- 98
2017-10-27 03:00:00 11.7 5 Sur 15 Sudeste 0 -- -- 97
2017-10-27 02:00:00 12 6 Sur 14 Sur 0 -- -- 98
2017-10-27 01:00:00 12.5 6 Sur 10 Sur 0 -- -- 97
2017-10-27 00:00:00 12.7 4 Sur 11 Sur 0 -- -- 96
2017-10-26 23:00:00 12.9 3 Sur 6 Sur 0 -- -- 94
2017-10-26 22:00:00 14 0 Calma 9 Sur 0 -- -- 94
2017-10-26 21:00:00 14.7 3 Sur 8 Sur 0 -- -- 92
2017-10-26 20:00:00 16.1 3 Sur 6 Sur 0 -- -- 86
2017-10-26 19:00:00 19 3 Oeste 10 Norte 0 -- -- 78
2017-10-26 18:00:00 21.2 6 Norte 17 Norte 0 -- -- 67
2017-10-26 17:00:00 22.6 8 Norte 17 Nordeste 0 -- -- 62
2017-10-26 16:00:00 23.3 8 Nordeste 12 Noroeste 0 -- -- 60
2017-10-26 15:00:00 23.1 6 Noroeste 17 Oeste 0 -- -- 61
2017-10-26 14:00:00 22.7 6 Noroeste 18 Oeste 0 -- -- 63
2017-10-26 13:00:00 22.1 13 Oeste 26 Oeste 0 -- -- 64
2017-10-26 12:00:00 19.9 7 Oeste 15 Oeste 0 -- -- 71
2017-10-26 11:00:00 14.6 7 Sudeste 13 Sudeste 0 -- -- 97
2017-10-26 10:00:00 11.5 4 Sudeste 8 Sudeste 0 -- -- 100
2017-10-26 09:00:00 9.5 3 Sur 7 Sur 0 -- -- 100
2017-10-26 08:00:00 10 2 Sudoeste 13 Sur 0 -- -- 99
2017-10-26 07:00:00 10 3 Sur 8 Sur 0 -- -- 100
2017-10-26 06:00:00 9.8 2 Sudoeste 8 Sur 0 -- -- 98
2017-10-26 05:00:00 10.4 5 Sur 9 Sur 0 -- -- 100
2017-10-26 04:00:00 10.9 3 Sur 10 Sur 0 -- -- 99
2017-10-26 03:00:00 11.2 4 Sudeste 10 Sur 0 -- -- 99
2017-10-26 02:00:00 11.5 5 Sur 8 Sudeste 0 -- -- 98
2017-10-26 01:00:00 12.1 7 Sur 13 Sudoeste 0 -- -- 98
2017-10-26 00:00:00 12.6 0 Calma 9 Sur 0 -- -- 98